sensor_id;sensor_type;location;lat;lon;timestamp;pressure;altitude;pressure_sealevel;temperature;humidity
10202;BME280;5143;42.584;23.164;2023-04-08T00:00:04;92554.81;;;3.14;100.00
10202;BME280;5143;42.584;23.164;2023-04-08T00:02:33;92548.16;;;3.06;100.00
10202;BME280;5143;42.584;23.164;2023-04-08T00:05:00;92551.50;;;3.10;100.00
10202;BME280;5143;42.584;23.164;2023-04-08T00:07:27;92546.22;;;3.06;100.00
10202;BME280;5143;42.584;23.164;2023-04-08T00:09:54;92544.91;;;3.11;100.00
10202;BME280;5143;42.584;23.164;2023-04-08T00:12:21;92553.94;;;3.17;100.00
10202;BME280;5143;42.584;23.164;2023-04-08T00:14:48;92540.16;;;3.15;100.00
10202;BME280;5143;42.584;23.164;2023-04-08T00:17:14;92548.13;;;3.18;100.00
10202;BME280;5143;42.584;23.164;2023-04-08T00:19:43;92536.38;;;3.12;100.00
10202;BME280;5143;42.584;23.164;2023-04-08T00:22:10;92545.84;;;3.17;100.00
10202;BME280;5143;42.584;23.164;2023-04-08T00:24:37;92551.75;;;3.24;100.00
10202;BME280;5143;42.584;23.164;2023-04-08T00:27:05;92542.94;;;3.24;100.00
10202;BME280;5143;42.584;23.164;2023-04-08T00:29:32;92554.03;;;3.26;100.00
10202;BME280;5143;42.584;23.164;2023-04-08T00:31:58;92544.63;;;3.30;100.00
10202;BME280;5143;42.584;23.164;2023-04-08T00:34:25;92549.16;;;3.33;100.00
10202;BME280;5143;42.584;23.164;2023-04-08T00:36:54;92552.91;;;3.36;100.00
10202;BME280;5143;42.584;23.164;2023-04-08T00:39:21;92542.28;;;3.32;100.00
10202;BME280;5143;42.584;23.164;2023-04-08T00:41:47;92547.53;;;3.36;100.00
10202;BME280;5143;42.584;23.164;2023-04-08T00:44:14;92549.25;;;3.30;100.00
10202;BME280;5143;42.584;23.164;2023-04-08T00:46:41;92540.84;;;3.28;100.00
10202;BME280;5143;42.584;23.164;2023-04-08T00:49:09;92540.63;;;3.35;100.00
10202;BME280;5143;42.584;23.164;2023-04-08T00:51:36;92551.09;;;3.33;100.00
10202;BME280;5143;42.584;23.164;2023-04-08T00:54:05;92551.44;;;3.35;100.00
10202;BME280;5143;42.584;23.164;2023-04-08T00:56:33;92544.13;;;3.23;100.00
10202;BME280;5143;42.584;23.164;2023-04-08T00:59:02;92548.88;;;3.19;100.00
10202;BME280;5143;42.584;23.164;2023-04-08T01:01:36;92544.38;;;3.16;100.00
10202;BME280;5143;42.584;23.164;2023-04-08T01:04:08;92543.34;;;3.22;100.00
10202;BME280;5143;42.584;23.164;2023-04-08T01:06:43;92542.06;;;3.27;100.00
10202;BME280;5143;42.584;23.164;2023-04-08T01:09:18;92546.50;;;3.21;100.00
10202;BME280;5143;42.584;23.164;2023-04-08T01:11:45;92547.94;;;3.00;100.00
10202;BME280;5143;42.584;23.164;2023-04-08T01:14:18;92545.44;;;3.06;100.00
10202;BME280;5143;42.584;23.164;2023-04-08T01:16:46;92552.78;;;3.18;100.00
10202;BME280;5143;42.584;23.164;2023-04-08T01:19:19;92545.25;;;3.13;100.00
10202;BME280;5143;42.584;23.164;2023-04-08T01:21:48;92547.59;;;3.11;100.00
10202;BME280;5143;42.584;23.164;2023-04-08T01:24:22;92541.03;;;3.12;100.00
10202;BME280;5143;42.584;23.164;2023-04-08T01:26:52;92549.63;;;3.19;100.00
10202;BME280;5143;42.584;23.164;2023-04-08T01:29:21;92550.84;;;3.06;100.00
10202;BME280;5143;42.584;23.164;2023-04-08T01:31:49;92550.63;;;3.13;100.00
10202;BME280;5143;42.584;23.164;2023-04-08T01:34:18;92549.06;;;3.24;100.00
10202;BME280;5143;42.584;23.164;2023-04-08T01:36:47;92544.75;;;3.27;100.00
10202;BME280;5143;42.584;23.164;2023-04-08T01:39:15;92545.06;;;3.29;100.00
10202;BME280;5143;42.584;23.164;2023-04-08T01:41:44;92552.81;;;3.39;100.00
10202;BME280;5143;42.584;23.164;2023-04-08T01:44:14;92560.69;;;3.34;100.00
10202;BME280;5143;42.584;23.164;2023-04-08T01:46:42;92560.81;;;3.30;100.00
10202;BME280;5143;42.584;23.164;2023-04-08T01:49:10;92561.56;;;3.31;100.00
10202;BME280;5143;42.584;23.164;2023-04-08T01:51:40;92558.69;;;3.25;100.00
10202;BME280;5143;42.584;23.164;2023-04-08T01:54:07;92557.28;;;3.21;100.00
10202;BME280;5143;42.584;23.164;2023-04-08T01:56:36;92566.97;;;3.31;100.00
10202;BME280;5143;42.584;23.164;2023-04-08T01:59:08;92578.63;;;3.28;100.00
10202;BME280;5143;42.584;23.164;2023-04-08T02:01:37;92578.94;;;3.30;100.00
10202;BME280;5143;42.584;23.164;2023-04-08T02:04:05;92579.22;;;3.10;100.00
10202;BME280;5143;42.584;23.164;2023-04-08T02:06:32;92583.41;;;3.11;100.00
10202;BME280;5143;42.584;23.164;2023-04-08T02:09:00;92581.22;;;3.19;100.00
10202;BME280;5143;42.584;23.164;2023-04-08T02:11:27;92576.19;;;3.21;100.00
10202;BME280;5143;42.584;23.164;2023-04-08T02:13:54;92587.03;;;3.30;100.00
10202;BME280;5143;42.584;23.164;2023-04-08T02:16:27;92583.25;;;3.27;100.00
10202;BME280;5143;42.584;23.164;2023-04-08T02:18:59;92592.00;;;3.31;100.00
10202;BME280;5143;42.584;23.164;2023-04-08T02:21:31;92580.34;;;3.34;100.00
10202;BME280;5143;42.584;23.164;2023-04-08T02:24:03;92581.88;;;3.23;100.00
10202;BME280;5143;42.584;23.164;2023-04-08T02:26:32;92583.25;;;3.27;100.00
10202;BME280;5143;42.584;23.164;2023-04-08T02:29:00;92571.84;;;3.23;100.00
10202;BME280;5143;42.584;23.164;2023-04-08T02:31:28;92580.25;;;3.25;100.00
10202;BME280;5143;42.584;23.164;2023-04-08T02:33:57;92566.97;;;3.31;100.00
10202;BME280;5143;42.584;23.164;2023-04-08T02:36:25;92568.59;;;3.28;100.00
10202;BME280;5143;42.584;23.164;2023-04-08T02:38:52;92565.28;;;3.12;100.00
10202;BME280;5143;42.584;23.164;2023-04-08T02:41:19;92578.66;;;3.15;100.00
10202;BME280;5143;42.584;23.164;2023-04-08T02:43:46;92579.75;;;3.18;100.00
10202;BME280;5143;42.584;23.164;2023-04-08T02:46:13;92575.09;;;3.18;100.00
10202;BME280;5143;42.584;23.164;2023-04-08T02:48:40;92583.41;;;3.24;100.00
10202;BME280;5143;42.584;23.164;2023-04-08T02:51:08;92583.41;;;3.24;100.00
10202;BME280;5143;42.584;23.164;2023-04-08T02:53:36;92588.66;;;3.27;100.00
10202;BME280;5143;42.584;23.164;2023-04-08T02:56:03;92575.31;;;3.24;100.00
10202;BME280;5143;42.584;23.164;2023-04-08T02:58:30;92578.22;;;3.29;100.00
10202;BME280;5143;42.584;23.164;2023-04-08T03:00:57;92578.81;;;3.33;100.00
10202;BME280;5143;42.584;23.164;2023-04-08T03:03:25;92573.63;;;3.39;100.00
10202;BME280;5143;42.584;23.164;2023-04-08T03:05:53;92567.84;;;3.28;100.00
10202;BME280;5143;42.584;23.164;2023-04-08T03:08:22;92572.59;;;3.24;100.00
10202;BME280;5143;42.584;23.164;2023-04-08T03:10:50;92557.59;;;3.23;100.00
10202;BME280;5143;42.584;23.164;2023-04-08T03:13:17;92555.03;;;3.19;100.00
10202;BME280;5143;42.584;23.164;2023-04-08T03:15:44;92570.34;;;3.22;100.00
10202;BME280;5143;42.584;23.164;2023-04-08T03:18:11;92568.44;;;3.10;100.00
10202;BME280;5143;42.584;23.164;2023-04-08T03:20:38;92563.25;;;3.16;100.00
10202;BME280;5143;42.584;23.164;2023-04-08T03:23:05;92558.94;;;3.06;100.00
10202;BME280;5143;42.584;23.164;2023-04-08T03:25:34;92570.56;;;3.15;100.00
10202;BME280;5143;42.584;23.164;2023-04-08T03:28:01;92563.97;;;3.16;100.00
10202;BME280;5143;42.584;23.164;2023-04-08T03:30:28;92552.69;;;3.09;100.00
10202;BME280;5143;42.584;23.164;2023-04-08T03:32:54;92556.97;;;3.19;100.00
10202;BME280;5143;42.584;23.164;2023-04-08T03:35:21;92564.31;;;3.18;100.00
10202;BME280;5143;42.584;23.164;2023-04-08T03:37:48;92570.56;;;3.15;100.00
10202;BME280;5143;42.584;23.164;2023-04-08T03:40:15;92571.97;;;3.20;100.00
10202;BME280;5143;42.584;23.164;2023-04-08T03:42:44;92566.69;;;3.16;100.00
10202;BME280;5143;42.584;23.164;2023-04-08T03:45:11;92565.03;;;3.19;100.00
10202;BME280;5143;42.584;23.164;2023-04-08T03:47:38;92570.78;;;3.21;100.00
10202;BME280;5143;42.584;23.164;2023-04-08T03:50:06;92565.59;;;3.14;100.00
10202;BME280;5143;42.584;23.164;2023-04-08T03:52:33;92574.97;;;3.22;100.00
10202;BME280;5143;42.584;23.164;2023-04-08T03:55:00;92572.41;;;3.18;100.00
10202;BME280;5143;42.584;23.164;2023-04-08T03:57:27;92571.09;;;3.23;100.00
10202;BME280;5143;42.584;23.164;2023-04-08T03:59:55;92578.22;;;3.17;100.00
10202;BME280;5143;42.584;23.164;2023-04-08T04:02:22;92561.97;;;3.08;100.00
10202;BME280;5143;42.584;23.164;2023-04-08T04:04:49;92569.00;;;2.92;100.00
10202;BME280;5143;42.584;23.164;2023-04-08T04:07:16;92568.13;;;2.95;100.00
10202;BME280;5143;42.584;23.164;2023-04-08T04:09:43;92576.13;;;2.86;100.00
10202;BME280;5143;42.584;23.164;2023-04-08T04:12:10;92584.50;;;2.88;100.00
10202;BME280;5143;42.584;23.164;2023-04-08T04:14:37;92584.31;;;2.95;100.00
10202;BME280;5143;42.584;23.164;2023-04-08T04:17:05;92549.41;;;2.79;100.00
10202;BME280;5143;42.584;23.164;2023-04-08T04:19:32;92581.72;;;3.05;100.00
10202;BME280;5143;42.584;23.164;2023-04-08T04:21:59;92577.91;;;3.15;100.00
10202;BME280;5143;42.584;23.164;2023-04-08T04:24:25;92574.34;;;3.18;100.00
10202;BME280;5143;42.584;23.164;2023-04-08T04:26:53;92571.75;;;3.14;100.00
10202;BME280;5143;42.584;23.164;2023-04-08T04:29:20;92574.97;;;3.22;100.00
10202;BME280;5143;42.584;23.164;2023-04-08T04:31:47;92579.13;;;3.01;100.00
10202;BME280;5143;42.584;23.164;2023-04-08T04:34:15;92568.34;;;3.01;100.00
10202;BME280;5143;42.584;23.164;2023-04-08T04:36:42;92572.53;;;3.15;100.00
10202;BME280;5143;42.584;23.164;2023-04-08T04:39:09;92578.53;;;3.19;100.00
10202;BME280;5143;42.584;23.164;2023-04-08T04:41:36;92579.69;;;3.30;100.00
10202;BME280;5143;42.584;23.164;2023-04-08T04:44:05;92581.31;;;3.40;100.00
10202;BME280;5143;42.584;23.164;2023-04-08T04:46:32;92588.69;;;3.49;100.00
10202;BME280;5143;42.584;23.164;2023-04-08T04:48:58;92572.19;;;3.47;100.00
10202;BME280;5143;42.584;23.164;2023-04-08T04:51:26;92576.50;;;3.57;100.00
10202;BME280;5143;42.584;23.164;2023-04-08T04:53:53;92589.69;;;3.77;100.00
10202;BME280;5143;42.584;23.164;2023-04-08T04:56:20;92588.41;;;3.90;100.00
10202;BME280;5143;42.584;23.164;2023-04-08T04:58:47;92587.25;;;3.91;100.00
10202;BME280;5143;42.584;23.164;2023-04-08T05:01:14;92592.16;;;4.05;100.00
10202;BME280;5143;42.584;23.164;2023-04-08T05:03:41;92600.03;;;4.22;100.00
10202;BME280;5143;42.584;23.164;2023-04-08T05:06:08;92593.81;;;4.34;100.00
10202;BME280;5143;42.584;23.164;2023-04-08T05:08:37;92589.31;;;4.40;100.00
10202;BME280;5143;42.584;23.164;2023-04-08T05:11:07;92596.03;;;4.57;100.00
10202;BME280;5143;42.584;23.164;2023-04-08T05:13:34;92598.66;;;4.69;100.00
10202;BME280;5143;42.584;23.164;2023-04-08T05:16:01;92600.44;;;4.72;100.00
10202;BME280;5143;42.584;23.164;2023-04-08T05:18:28;92604.44;;;4.90;100.00
10202;BME280;5143;42.584;23.164;2023-04-08T05:20:55;92601.47;;;4.97;100.00
10202;BME280;5143;42.584;23.164;2023-04-08T05:23:22;92595.78;;;5.13;100.00
10202;BME280;5143;42.584;23.164;2023-04-08T05:25:50;92605.09;;;5.12;100.00
10202;BME280;5143;42.584;23.164;2023-04-08T05:28:17;92602.28;;;5.33;100.00
10202;BME280;5143;42.584;23.164;2023-04-08T05:30:48;92607.19;;;5.66;100.00
10202;BME280;5143;42.584;23.164;2023-04-08T05:33:14;92606.41;;;5.74;100.00
10202;BME280;5143;42.584;23.164;2023-04-08T05:35:41;92598.78;;;5.91;100.00
10202;BME280;5143;42.584;23.164;2023-04-08T05:38:08;92607.19;;;6.02;98.81
10202;BME280;5143;42.584;23.164;2023-04-08T05:40:36;92612.94;;;6.04;97.33
10202;BME280;5143;42.584;23.164;2023-04-08T05:43:04;92620.88;;;5.80;96.89
10202;BME280;5143;42.584;23.164;2023-04-08T05:45:31;92609.16;;;5.92;95.23
10202;BME280;5143;42.584;23.164;2023-04-08T05:47:58;92612.63;;;6.11;95.10
10202;BME280;5143;42.584;23.164;2023-04-08T05:50:25;92616.53;;;6.28;94.91
10202;BME280;5143;42.584;23.164;2023-04-08T05:52:52;92608.97;;;6.41;93.20
10202;BME280;5143;42.584;23.164;2023-04-08T05:55:19;92607.59;;;6.55;92.21
10202;BME280;5143;42.584;23.164;2023-04-08T05:57:46;92598.69;;;6.64;91.33
10202;BME280;5143;42.584;23.164;2023-04-08T06:00:15;92602.28;;;6.70;89.24
10202;BME280;5143;42.584;23.164;2023-04-08T06:02:42;92594.81;;;6.88;89.32
10202;BME280;5143;42.584;23.164;2023-04-08T06:05:09;92599.88;;;7.37;86.31
10202;BME280;5143;42.584;23.164;2023-04-08T06:07:36;92601.50;;;7.67;82.13
10202;BME280;5143;42.584;23.164;2023-04-08T06:10:03;92611.41;;;8.18;78.43
10202;BME280;5143;42.584;23.164;2023-04-08T06:12:34;92602.75;;;8.72;76.91
10202;BME280;5143;42.584;23.164;2023-04-08T06:15:03;92607.97;;;9.05;75.67
10202;BME280;5143;42.584;23.164;2023-04-08T06:17:32;92609.50;;;9.96;69.93
10202;BME280;5143;42.584;23.164;2023-04-08T06:20:00;92611.13;;;9.88;66.11
10202;BME280;5143;42.584;23.164;2023-04-08T06:22:29;92613.28;;;10.19;63.59
10202;BME280;5143;42.584;23.164;2023-04-08T06:24:57;92612.09;;;9.85;64.30
10202;BME280;5143;42.584;23.164;2023-04-08T06:27:23;92621.41;;;9.78;67.19
10202;BME280;5143;42.584;23.164;2023-04-08T06:29:50;92620.13;;;9.74;65.25
10202;BME280;5143;42.584;23.164;2023-04-08T06:32:18;92621.66;;;9.60;65.23
10202;BME280;5143;42.584;23.164;2023-04-08T06:34:46;92622.00;;;9.47;66.64
10202;BME280;5143;42.584;23.164;2023-04-08T06:37:13;92626.81;;;9.38;64.26
10202;BME280;5143;42.584;23.164;2023-04-08T06:39:40;92630.72;;;9.37;64.46
10202;BME280;5143;42.584;23.164;2023-04-08T06:42:07;92633.84;;;9.44;63.75
10202;BME280;5143;42.584;23.164;2023-04-08T06:44:34;92631.84;;;9.45;62.29
10202;BME280;5143;42.584;23.164;2023-04-08T06:47:00;92614.13;;;9.20;62.75
10202;BME280;5143;42.584;23.164;2023-04-08T06:49:27;92618.28;;;9.16;63.84
10202;BME280;5143;42.584;23.164;2023-04-08T06:51:56;92632.25;;;9.38;60.82
10202;BME280;5143;42.584;23.164;2023-04-08T06:54:23;92630.91;;;9.83;60.41
10202;BME280;5143;42.584;23.164;2023-04-08T06:56:50;92632.41;;;10.44;59.52
10202;BME280;5143;42.584;23.164;2023-04-08T06:59:17;92638.25;;;11.09;56.69
10202;BME280;5143;42.584;23.164;2023-04-08T07:01:44;92632.63;;;11.86;55.24
10202;BME280;5143;42.584;23.164;2023-04-08T07:04:11;92643.06;;;11.88;52.98
10202;BME280;5143;42.584;23.164;2023-04-08T07:06:38;92639.41;;;11.65;53.61
10202;BME280;5143;42.584;23.164;2023-04-08T07:09:06;92637.81;;;11.84;52.42
10202;BME280;5143;42.584;23.164;2023-04-08T07:11:33;92639.63;;;11.98;51.53
10202;BME280;5143;42.584;23.164;2023-04-08T07:14:00;92643.34;;;11.95;51.58
10202;BME280;5143;42.584;23.164;2023-04-08T07:16:28;92647.03;;;11.50;49.80
10202;BME280;5143;42.584;23.164;2023-04-08T07:18:54;92642.53;;;11.47;50.05
10202;BME280;5143;42.584;23.164;2023-04-08T07:21:22;92647.16;;;11.35;49.68
10202;BME280;5143;42.584;23.164;2023-04-08T07:23:50;92655.41;;;11.41;50.01
10202;BME280;5143;42.584;23.164;2023-04-08T07:26:19;92646.84;;;11.27;49.62
10202;BME280;5143;42.584;23.164;2023-04-08T07:28:46;92655.50;;;11.20;49.36
10202;BME280;5143;42.584;23.164;2023-04-08T07:31:14;92659.31;;;11.03;50.40
10202;BME280;5143;42.584;23.164;2023-04-08T07:33:43;92647.72;;;10.82;50.91
10202;BME280;5143;42.584;23.164;2023-04-08T07:36:11;92660.38;;;10.85;51.13
10202;BME280;5143;42.584;23.164;2023-04-08T07:38:39;92652.47;;;10.87;50.83
10202;BME280;5143;42.584;23.164;2023-04-08T07:41:06;92653.78;;;10.97;51.35
10202;BME280;5143;42.584;23.164;2023-04-08T07:43:35;92660.75;;;10.73;52.21
10202;BME280;5143;42.584;23.164;2023-04-08T07:46:03;92666.16;;;11.18;52.73
10202;BME280;5143;42.584;23.164;2023-04-08T07:48:30;92665.22;;;10.96;52.39
10202;BME280;5143;42.584;23.164;2023-04-08T07:51:02;92671.78;;;11.41;52.47
10202;BME280;5143;42.584;23.164;2023-04-08T07:53:29;92671.94;;;11.57;51.56
10202;BME280;5143;42.584;23.164;2023-04-08T07:55:56;92664.66;;;11.80;50.23
10202;BME280;5143;42.584;23.164;2023-04-08T07:58:22;92668.66;;;11.84;49.80
10202;BME280;5143;42.584;23.164;2023-04-08T08:00:52;92671.88;;;12.25;49.41
10202;BME280;5143;42.584;23.164;2023-04-08T08:03:19;92679.78;;;12.12;48.47
10202;BME280;5143;42.584;23.164;2023-04-08T08:05:46;92679.19;;;11.97;49.68
10202;BME280;5143;42.584;23.164;2023-04-08T08:08:13;92679.56;;;11.79;48.96
10202;BME280;5143;42.584;23.164;2023-04-08T08:10:40;92669.00;;;11.35;50.87
10202;BME280;5143;42.584;23.164;2023-04-08T08:13:07;92678.88;;;10.96;51.14
10202;BME280;5143;42.584;23.164;2023-04-08T08:15:34;92673.50;;;11.07;51.76
10202;BME280;5143;42.584;23.164;2023-04-08T08:18:03;92668.31;;;10.63;52.44
10202;BME280;5143;42.584;23.164;2023-04-08T08:20:30;92670.84;;;10.66;52.67
10202;BME280;5143;42.584;23.164;2023-04-08T08:22:57;92680.03;;;10.89;52.23
10202;BME280;5143;42.584;23.164;2023-04-08T08:25:24;92677.66;;;11.28;52.15
10202;BME280;5143;42.584;23.164;2023-04-08T08:27:50;92678.59;;;10.94;53.52
10202;BME280;5143;42.584;23.164;2023-04-08T08:30:17;92672.81;;;11.12;52.31
10202;BME280;5143;42.584;23.164;2023-04-08T08:32:46;92669.88;;;11.47;52.96
10202;BME280;5143;42.584;23.164;2023-04-08T08:35:14;92678.59;;;11.82;52.23
10202;BME280;5143;42.584;23.164;2023-04-08T08:37:41;92680.09;;;11.83;51.36
10202;BME280;5143;42.584;23.164;2023-04-08T08:40:09;92683.44;;;11.67;51.04
10202;BME280;5143;42.584;23.164;2023-04-08T08:42:36;92674.94;;;11.28;51.80
10202;BME280;5143;42.584;23.164;2023-04-08T08:45:05;92682.53;;;11.18;51.66
10202;BME280;5143;42.584;23.164;2023-04-08T08:47:32;92680.53;;;11.45;52.19
10202;BME280;5143;42.584;23.164;2023-04-08T08:49:59;92687.00;;;11.78;52.52
10202;BME280;5143;42.584;23.164;2023-04-08T08:52:27;92673.72;;;11.66;50.99
10202;BME280;5143;42.584;23.164;2023-04-08T08:54:57;92675.56;;;11.74;52.19
10202;BME280;5143;42.584;23.164;2023-04-08T08:57:24;92677.47;;;11.68;52.86
10202;BME280;5143;42.584;23.164;2023-04-08T08:59:51;92673.88;;;11.82;52.66
10202;BME280;5143;42.584;23.164;2023-04-08T09:02:25;92683.16;;;11.96;51.93
10202;BME280;5143;42.584;23.164;2023-04-08T09:04:57;92678.66;;;11.93;51.54
10202;BME280;5143;42.584;23.164;2023-04-08T09:07:26;92679.81;;;12.23;50.88
10202;BME280;5143;42.584;23.164;2023-04-08T09:09:55;92679.00;;;12.60;49.85
10202;BME280;5143;42.584;23.164;2023-04-08T09:12:24;92671.66;;;12.99;49.41
10202;BME280;5143;42.584;23.164;2023-04-08T09:15:02;92674.44;;;13.21;48.40
10202;BME280;5143;42.584;23.164;2023-04-08T09:17:33;92678.69;;;13.28;48.63
10202;BME280;5143;42.584;23.164;2023-04-08T09:20:05;92679.06;;;12.82;46.80
10202;BME280;5143;42.584;23.164;2023-04-08T09:22:34;92681.00;;;12.65;47.99
10202;BME280;5143;42.584;23.164;2023-04-08T09:25:21;92688.03;;;12.23;45.46
10202;BME280;5143;42.584;23.164;2023-04-08T09:27:48;92678.16;;;12.37;45.67
10202;BME280;5143;42.584;23.164;2023-04-08T09:30:16;92656.28;;;11.89;47.70
10202;BME280;5143;42.584;23.164;2023-04-08T09:32:46;92671.66;;;12.34;47.90
10202;BME280;5143;42.584;23.164;2023-04-08T09:35:14;92664.63;;;12.81;45.55
10202;BME280;5143;42.584;23.164;2023-04-08T09:37:42;92663.66;;;12.90;45.53
10202;BME280;5143;42.584;23.164;2023-04-08T09:40:13;92668.69;;;13.19;43.66
10202;BME280;5143;42.584;23.164;2023-04-08T09:42:44;92663.22;;;13.30;43.52
10202;BME280;5143;42.584;23.164;2023-04-08T09:45:14;92664.47;;;13.63;42.55
10202;BME280;5143;42.584;23.164;2023-04-08T09:47:48;92652.19;;;12.97;41.68
10202;BME280;5143;42.584;23.164;2023-04-08T09:50:19;92655.88;;;12.77;42.10
10202;BME280;5143;42.584;23.164;2023-04-08T09:52:52;92656.13;;;12.74;42.21
10202;BME280;5143;42.584;23.164;2023-04-08T09:55:26;92645.88;;;12.52;43.40
10202;BME280;5143;42.584;23.164;2023-04-08T09:57:58;92657.88;;;12.71;44.91
10202;BME280;5143;42.584;23.164;2023-04-08T10:00:31;92645.22;;;12.85;44.72
10202;BME280;5143;42.584;23.164;2023-04-08T10:03:05;92658.97;;;13.74;44.09
10202;BME280;5143;42.584;23.164;2023-04-08T10:05:36;92663.75;;;13.68;40.57
10202;BME280;5143;42.584;23.164;2023-04-08T10:08:04;92661.66;;;14.18;40.59
10202;BME280;5143;42.584;23.164;2023-04-08T10:10:33;92654.00;;;13.94;39.87
10202;BME280;5143;42.584;23.164;2023-04-08T10:13:01;92645.03;;;13.49;40.43
10202;BME280;5143;42.584;23.164;2023-04-08T10:15:30;92659.50;;;13.55;39.09
10202;BME280;5143;42.584;23.164;2023-04-08T10:18:30;92655.16;;;14.21;40.39
10202;BME280;5143;42.584;23.164;2023-04-08T10:21:00;92642.91;;;14.44;40.10
10202;BME280;5143;42.584;23.164;2023-04-08T10:23:53;92635.25;;;13.93;40.10
10202;BME280;5143;42.584;23.164;2023-04-08T10:26:32;92638.81;;;13.43;39.19
10202;BME280;5143;42.584;23.164;2023-04-08T10:32:07;92633.81;;;13.20;40.69
10202;BME280;5143;42.584;23.164;2023-04-08T10:34:33;92631.47;;;12.68;41.63
10202;BME280;5143;42.584;23.164;2023-04-08T10:37:00;92611.91;;;13.25;40.99
10202;BME280;5143;42.584;23.164;2023-04-08T10:39:29;92605.63;;;13.64;41.89
10202;BME280;5143;42.584;23.164;2023-04-08T10:42:00;92630.22;;;14.19;41.55
10202;BME280;5143;42.584;23.164;2023-04-08T10:44:27;92626.88;;;14.54;39.72
10202;BME280;5143;42.584;23.164;2023-04-08T10:46:54;92601.22;;;14.40;39.45
10202;BME280;5143;42.584;23.164;2023-04-08T10:49:31;92611.31;;;13.99;40.11
10202;BME280;5143;42.584;23.164;2023-04-08T10:51:59;92609.22;;;14.38;39.95
10202;BME280;5143;42.584;23.164;2023-04-08T10:54:26;92615.16;;;14.42;40.12
10202;BME280;5143;42.584;23.164;2023-04-08T10:56:53;92620.25;;;14.79;37.57
10202;BME280;5143;42.584;23.164;2023-04-08T10:59:28;92599.19;;;14.93;39.18
10202;BME280;5143;42.584;23.164;2023-04-08T11:01:55;92601.38;;;14.59;39.18
10202;BME280;5143;42.584;23.164;2023-04-08T11:04:24;92607.31;;;14.68;39.89
10202;BME280;5143;42.584;23.164;2023-04-08T11:06:51;92591.72;;;14.88;39.53
10202;BME280;5143;42.584;23.164;2023-04-08T11:09:18;92603.28;;;15.16;38.89
10202;BME280;5143;42.584;23.164;2023-04-08T11:11:45;92596.66;;;14.95;38.76
10202;BME280;5143;42.584;23.164;2023-04-08T11:14:13;92585.50;;;14.30;39.91
10202;BME280;5143;42.584;23.164;2023-04-08T11:16:43;92581.69;;;14.49;40.10
10202;BME280;5143;42.584;23.164;2023-04-08T11:19:12;92591.19;;;14.48;40.22
10202;BME280;5143;42.584;23.164;2023-04-08T11:21:39;92587.25;;;14.27;39.55
10202;BME280;5143;42.584;23.164;2023-04-08T11:24:09;92578.66;;;14.58;40.68
10202;BME280;5143;42.584;23.164;2023-04-08T11:26:36;92584.75;;;14.29;39.16
10202;BME280;5143;42.584;23.164;2023-04-08T11:29:05;92577.19;;;13.83;39.66
10202;BME280;5143;42.584;23.164;2023-04-08T11:31:32;92572.06;;;14.20;39.71
10202;BME280;5143;42.584;23.164;2023-04-08T11:34:00;92578.78;;;14.25;39.58
10202;BME280;5143;42.584;23.164;2023-04-08T11:36:28;92578.41;;;13.82;38.26
10202;BME280;5143;42.584;23.164;2023-04-08T11:38:55;92570.53;;;14.31;38.76
10202;BME280;5143;42.584;23.164;2023-04-08T11:41:22;92563.34;;;14.16;40.29
10202;BME280;5143;42.584;23.164;2023-04-08T11:43:53;92571.09;;;14.12;38.54
10202;BME280;5143;42.584;23.164;2023-04-08T11:46:20;92583.63;;;13.97;38.57
10202;BME280;5143;42.584;23.164;2023-04-08T11:49:01;92559.28;;;14.29;39.30
10202;BME280;5143;42.584;23.164;2023-04-08T11:51:29;92554.41;;;14.05;38.95
10202;BME280;5143;42.584;23.164;2023-04-08T11:53:56;92571.44;;;13.81;36.73
10202;BME280;5143;42.584;23.164;2023-04-08T11:56:23;92577.44;;;13.69;37.89
10202;BME280;5143;42.584;23.164;2023-04-08T11:58:51;92563.25;;;13.65;38.63
10202;BME280;5143;42.584;23.164;2023-04-08T12:01:19;92555.84;;;13.15;38.95
10202;BME280;5143;42.584;23.164;2023-04-08T12:03:53;92552.84;;;13.13;38.46
10202;BME280;5143;42.584;23.164;2023-04-08T12:06:22;92558.56;;;13.04;40.07
10202;BME280;5143;42.584;23.164;2023-04-08T12:08:49;92538.09;;;12.94;40.50
10202;BME280;5143;42.584;23.164;2023-04-08T12:11:16;92557.78;;;12.81;41.59
10202;BME280;5143;42.584;23.164;2023-04-08T12:13:42;92552.09;;;13.01;41.28
10202;BME280;5143;42.584;23.164;2023-04-08T12:16:09;92557.06;;;13.25;41.88
10202;BME280;5143;42.584;23.164;2023-04-08T12:18:37;92552.59;;;13.22;42.13
10202;BME280;5143;42.584;23.164;2023-04-08T12:21:04;92553.06;;;12.76;43.41
10202;BME280;5143;42.584;23.164;2023-04-08T12:23:33;92554.25;;;12.48;43.59
10202;BME280;5143;42.584;23.164;2023-04-08T12:25:59;92548.28;;;12.43;44.42
10202;BME280;5143;42.584;23.164;2023-04-08T12:28:26;92547.00;;;12.39;45.30
10202;BME280;5143;42.584;23.164;2023-04-08T12:30:53;92549.16;;;12.07;44.21
10202;BME280;5143;42.584;23.164;2023-04-08T12:33:20;92543.91;;;11.98;47.37
10202;BME280;5143;42.584;23.164;2023-04-08T12:35:47;92549.38;;;11.98;48.88
10202;BME280;5143;42.584;23.164;2023-04-08T12:38:14;92551.44;;;12.20;48.83
10202;BME280;5143;42.584;23.164;2023-04-08T12:40:43;92554.78;;;12.63;47.82
10202;BME280;5143;42.584;23.164;2023-04-08T12:43:09;92550.00;;;12.35;46.57
10202;BME280;5143;42.584;23.164;2023-04-08T12:45:37;92546.31;;;12.50;48.36
10202;BME280;5143;42.584;23.164;2023-04-08T12:48:04;92551.56;;;12.86;47.06
10202;BME280;5143;42.584;23.164;2023-04-08T12:50:30;92539.59;;;12.78;46.41
10202;BME280;5143;42.584;23.164;2023-04-08T12:52:57;92548.56;;;12.62;45.05
10202;BME280;5143;42.584;23.164;2023-04-08T12:55:24;92543.59;;;12.61;45.99
10202;BME280;5143;42.584;23.164;2023-04-08T12:57:52;92542.84;;;12.82;45.34
10202;BME280;5143;42.584;23.164;2023-04-08T13:00:19;92543.09;;;12.95;45.17
10202;BME280;5143;42.584;23.164;2023-04-08T13:02:46;92555.06;;;12.87;45.68
10202;BME280;5143;42.584;23.164;2023-04-08T13:05:13;92546.06;;;12.75;44.28
10202;BME280;5143;42.584;23.164;2023-04-08T13:07:39;92559.47;;;12.46;44.52
10202;BME280;5143;42.584;23.164;2023-04-08T13:10:07;92551.47;;;12.36;43.20